Accueil
METAR-TAF:

METAR-TAF

Aéroports :

Trévise, Italie

latitude: 45-41N, longitude: 012-06E, altitude: 45 m

Observation

Le bulletin a été fait il y a 1 heure et 19 minutes, à 19:55 UTC
Vent 5 kt de nord/nord-est
Température 7°C
Humidité 61%
Pression 1025 hPa
Visibilité 10 km ou plus
pas de nuages en-dessous de 1500 mètres et pas de cumulonimbus.

METAR: LIPS 171955Z 02005KT CAVOK 07/M00 Q1025 RMK SKC VIS MIN 9999 WIND THR26 34006KT WIND THR08 02006KT BLU

Heure: 22:14 (21:14 UTC)

Prévision

Le bulletin a été fait il y a 1 heure et 14 minutes, à 20:00 UTC
Prévision valable du 17 à 21 UTC au 18 à 06 UTC
Vent 10 kt de est/nord-est
Visibilité 10 km ou plus
pas de nuages en-dessous de 1500 mètres et pas de cumulonimbus.

TAF: LIPS 172000Z 1721/1806 07010KT CAVOK

Observations et prévisions météorologiques de plus de 4000 aéroports (messages METAR et TAF).

Les stations disponibles sont représentées par des disques jaunes et rouges sur la carte.

Passer la souris dessus pour voir le nom de la station.

Cliquer dessus pour voir les observations et prévisions météorologiques.

Pour changer de carte: cliquez sur les boutons verts avec une croix noire pour zoomer, sur le bouton vert avec un tiret pour effectuer un zoom arrière, ou sur les flèches vertes pour les cartes adjacentes.


METAR-TAF: